Terminal Aerodrome Forecast
Issued by NWS

Current Version | Previous Version | Graphics & Text | Print | Product List | Glossary Off
Versions: 1 2 3 4 5 6 7 8 9 10 11 12 13 14

000
FTUS41 KILN 201100
TAFLCK
TAF
KLCK 201121Z 2012/2112 00000KT P6SM OVC018
     FM201600 VRB03KT P6SM BKN025
     FM210900 00000KT P6SM SCT025=

USA.gov is the U.S. government's official web portal to all federal, state and local government web resources and services.